VIR154 KJFK-EGLL
Flight info
| Callsign | VIR154 |
|---|---|
| Flight time | N/A |
| Altitude | 37000 |
| Route | MERIT DCT HFD DCT PUT DCT EBONY DCT TUDEP/M085F380 NATX GISTI/N0483F390 DCT KORAK DCT LIFFY UL975 MALUD Q38 NUGRA |
| Aircraft | A35K/H-SDE2E3GHIJ3J4J5LM1ORWXY/LB1D1 |
Departure
| Time | 2026-05-06 23:41 |
|---|---|
| Airport | John F. Kennedy International Airport (KJFK) |
Arrival
| Time | N/A |
|---|---|
| Airport | London Heathrow Airport (EGLL) |
| Time | Latitude | Longitude | Altitude | Speed | Heading |
|---|---|---|---|---|---|
| 2026-05-06 23:11 | 40.63981 | -73.78252 | 26 ft | 0 kts | 62° |
| 2026-05-06 23:22 | 40.63981 | -73.78253 | 26 ft | 2 kts | 62° |
| 2026-05-06 23:22 | 40.63972 | -73.78275 | 25 ft | 3 kts | 62° |
| 2026-05-06 23:22 | 40.63964 | -73.78299 | 25 ft | 3 kts | 86° |
| 2026-05-06 23:22 | 40.63960 | -73.78325 | 26 ft | 3 kts | 93° |
| 2026-05-06 23:23 | 40.63965 | -73.78351 | 25 ft | 3 kts | 130° |
| 2026-05-06 23:23 | 40.63969 | -73.78358 | 25 ft | 0 kts | 142° |
| 2026-05-06 23:28 | 40.63957 | -73.78347 | 24 ft | 4 kts | 146° |
| 2026-05-06 23:29 | 40.63946 | -73.78338 | 25 ft | 2 kts | 147° |
| 2026-05-06 23:29 | 40.63945 | -73.78337 | 25 ft | 3 kts | 148° |
| 2026-05-06 23:29 | 40.63938 | -73.78332 | 25 ft | 4 kts | 148° |
| 2026-05-06 23:30 | 40.63903 | -73.78310 | 26 ft | 7 kts | 162° |
| 2026-05-06 23:30 | 40.63844 | -73.78292 | 26 ft | 10 kts | 169° |
| 2026-05-06 23:30 | 40.63831 | -73.78289 | 26 ft | 11 kts | 171° |
| 2026-05-06 23:31 | 40.63815 | -73.78286 | 26 ft | 11 kts | 171° |
| 2026-05-06 23:31 | 40.63783 | -73.78280 | 26 ft | 1 kts | 173° |
| 2026-05-06 23:31 | 40.63700 | -73.78266 | 27 ft | 18 kts | 172° |
| 2026-05-06 23:32 | 40.63622 | -73.78254 | 27 ft | 0 kts | 176° |
| 2026-05-06 23:33 | 40.63616 | -73.78254 | 27 ft | 2 kts | 180° |
| 2026-05-06 23:33 | 40.63601 | -73.78256 | 27 ft | 4 kts | 187° |
| 2026-05-06 23:33 | 40.63564 | -73.78270 | 26 ft | 7 kts | 202° |
| 2026-05-06 23:34 | 40.63513 | -73.78303 | 27 ft | 9 kts | 207° |
| 2026-05-06 23:34 | 40.63454 | -73.78308 | 27 ft | 9 kts | 157° |
| 2026-05-06 23:34 | 40.63414 | -73.78246 | 28 ft | 10 kts | 122° |
| 2026-05-06 23:34 | 40.63371 | -73.78156 | 27 ft | 13 kts | 121° |
| 2026-05-06 23:35 | 40.63334 | -73.78040 | 27 ft | 15 kts | 101° |
| 2026-05-06 23:35 | 40.63342 | -73.77910 | 27 ft | 15 kts | 71° |
| 2026-05-06 23:35 | 40.63408 | -73.77791 | 28 ft | 17 kts | 36° |
| 2026-05-06 23:35 | 40.63515 | -73.77696 | 26 ft | 21 kts | 34° |
| 2026-05-06 23:36 | 40.63646 | -73.77597 | 32 ft | 23 kts | 28° |
| 2026-05-06 23:36 | 40.63796 | -73.77487 | 31 ft | 26 kts | 30° |
| 2026-05-06 23:36 | 40.63953 | -73.77358 | 32 ft | 28 kts | 32° |
| 2026-05-06 23:36 | 40.64100 | -73.77243 | 27 ft | 24 kts | 31° |
| 2026-05-06 23:37 | 40.64146 | -73.77210 | 27 ft | 0 kts | 30° |
| 2026-05-06 23:37 | 40.64152 | -73.77205 | 27 ft | 3 kts | 30° |
| 2026-05-06 23:37 | 40.64189 | -73.77177 | 27 ft | 9 kts | 30° |
| 2026-05-06 23:37 | 40.64265 | -73.77120 | 27 ft | 15 kts | 30° |
| 2026-05-06 23:38 | 40.64360 | -73.77043 | 26 ft | 13 kts | 28° |
| 2026-05-06 23:38 | 40.64459 | -73.76998 | 28 ft | 17 kts | 10° |
| 2026-05-06 23:38 | 40.64583 | -73.76930 | 30 ft | 21 kts | 30° |
| 2026-05-06 23:38 | 40.64726 | -73.76821 | 28 ft | 26 kts | 31° |
| 2026-05-06 23:39 | 40.64880 | -73.76700 | 27 ft | 24 kts | 30° |
| 2026-05-06 23:39 | 40.65033 | -73.76581 | 26 ft | 24 kts | 31° |
| 2026-05-06 23:39 | 40.65067 | -73.76550 | 27 ft | 0 kts | 43° |
| 2026-05-06 23:39 | 40.65088 | -73.76521 | 27 ft | 12 kts | 52° |
| 2026-05-06 23:40 | 40.65065 | -73.76406 | 29 ft | 15 kts | 117° |
| 2026-05-06 23:40 | 40.65042 | -73.76381 | 29 ft | 1 kts | 156° |
| 2026-05-06 23:40 | 40.64981 | -73.76401 | 28 ft | 20 kts | 213° |
| 2026-05-06 23:40 | 40.64786 | -73.76537 | 27 ft | 50 kts | 209° |
| 2026-05-06 23:41 | 40.64285 | -73.76931 | 27 ft | 114 kts | 211° |
| 2026-05-06 23:41 | 40.63447 | -73.77577 | 167 ft | 152 kts | 210° |
| 2026-05-06 23:41 | 40.62557 | -73.78277 | 837 ft | 146 kts | 212° |
| 2026-05-06 23:41 | 40.61714 | -73.78958 | 1565 ft | 139 kts | 216° |
| 2026-05-06 23:42 | 40.60890 | -73.79632 | 2148 ft | 148 kts | 217° |
| 2026-05-06 23:42 | 40.59952 | -73.80369 | 2493 ft | 169 kts | 216° |
| 2026-05-06 23:42 | 40.58876 | -73.81208 | 2887 ft | 191 kts | 216° |
| 2026-05-06 23:42 | 40.57671 | -73.82142 | 3365 ft | 210 kts | 216° |
| 2026-05-06 23:43 | 40.56368 | -73.83151 | 3896 ft | 224 kts | 215° |
| 2026-05-06 23:43 | 40.55014 | -73.84196 | 4484 ft | 233 kts | 215° |
| 2026-05-06 23:43 | 40.53550 | -73.85329 | 4801 ft | 250 kts | 215° |
| 2026-05-06 23:43 | 40.52082 | -73.86460 | 4855 ft | 252 kts | 215° |
| 2026-05-06 23:44 | 40.50579 | -73.87616 | 4849 ft | 250 kts | 215° |
| 2026-05-06 23:44 | 40.49081 | -73.88769 | 4852 ft | 250 kts | 215° |
| 2026-05-06 23:44 | 40.47574 | -73.89913 | 4850 ft | 251 kts | 213° |
| 2026-05-06 23:44 | 40.45917 | -73.90688 | 4848 ft | 259 kts | 193° |
| 2026-05-06 23:45 | 40.44088 | -73.90419 | 4856 ft | 272 kts | 165° |
| 2026-05-06 23:45 | 40.42506 | -73.89064 | 4837 ft | 285 kts | 138° |
| 2026-05-06 23:45 | 40.41466 | -73.86828 | 4846 ft | 294 kts | 111° |
| 2026-05-06 23:45 | 40.41237 | -73.84147 | 4847 ft | 297 kts | 84° |
| 2026-05-06 23:46 | 40.41871 | -73.81614 | 4868 ft | 296 kts | 57° |
| 2026-05-06 23:46 | 40.43062 | -73.79399 | 4856 ft | 297 kts | 49° |
| 2026-05-06 23:46 | 40.44368 | -73.77277 | 4856 ft | 297 kts | 47° |
| 2026-05-06 23:46 | 40.45654 | -73.75229 | 4885 ft | 296 kts | 47° |
| 2026-05-06 23:47 | 40.46948 | -73.73170 | 5096 ft | 297 kts | 47° |
| 2026-05-06 23:47 | 40.48286 | -73.71038 | 5494 ft | 300 kts | 47° |
| 2026-05-06 23:47 | 40.49621 | -73.68915 | 6089 ft | 302 kts | 47° |
| 2026-05-06 23:47 | 40.50960 | -73.66777 | 6809 ft | 305 kts | 47° |
| 2026-05-06 23:48 | 40.52310 | -73.64610 | 7500 ft | 310 kts | 47° |
| 2026-05-06 23:48 | 40.53684 | -73.62406 | 8246 ft | 313 kts | 47° |
| 2026-05-06 23:48 | 40.55079 | -73.60159 | 8991 ft | 319 kts | 47° |
| 2026-05-06 23:48 | 40.56494 | -73.57882 | 9694 ft | 325 kts | 47° |
| 2026-05-06 23:49 | 40.57931 | -73.55564 | 10262 ft | 335 kts | 47° |
| 2026-05-06 23:49 | 40.59443 | -73.53125 | 10647 ft | 352 kts | 47° |
| 2026-05-06 23:49 | 40.61052 | -73.50542 | 10832 ft | 376 kts | 47° |
| 2026-05-06 23:49 | 40.62791 | -73.47770 | 10855 ft | 403 kts | 47° |
| 2026-05-06 23:50 | 40.64662 | -73.44896 | 10851 ft | 420 kts | 43° |
| 2026-05-06 23:50 | 40.69526 | -73.40996 | 11966 ft | 408 kts | 14° |
| 2026-05-06 23:50 | 40.72190 | -73.39768 | 12599 ft | 411 kts | 11° |
| 2026-05-06 23:51 | 40.74952 | -73.38665 | 13204 ft | 415 kts | 9° |
| 2026-05-06 23:51 | 40.77726 | -73.37626 | 13810 ft | 419 kts | 9° |
| 2026-05-06 23:51 | 40.80588 | -73.36563 | 14333 ft | 424 kts | 9° |
| 2026-05-06 23:51 | 40.83433 | -73.35489 | 14952 ft | 427 kts | 9° |
| 2026-05-06 23:52 | 40.86297 | -73.34384 | 15564 ft | 429 kts | 9° |
| 2026-05-06 23:52 | 40.89170 | -73.33261 | 16183 ft | 432 kts | 10° |
| 2026-05-06 23:52 | 40.92020 | -73.32139 | 16796 ft | 435 kts | 10° |
| 2026-05-06 23:52 | 40.94901 | -73.30998 | 17427 ft | 438 kts | 10° |
| 2026-05-06 23:53 | 40.97858 | -73.29826 | 18090 ft | 440 kts | 10° |
| 2026-05-06 23:53 | 41.00818 | -73.28654 | 18556 ft | 446 kts | 10° |
| 2026-05-06 23:53 | 41.03837 | -73.27457 | 19093 ft | 449 kts | 9° |
| 2026-05-06 23:53 | 41.06804 | -73.26279 | 19602 ft | 452 kts | 9° |
| 2026-05-06 23:54 | 41.09838 | -73.25075 | 20136 ft | 455 kts | 8° |
| 2026-05-06 23:54 | 41.12849 | -73.23878 | 20677 ft | 458 kts | 8° |
| 2026-05-06 23:54 | 41.15913 | -73.22659 | 21219 ft | 461 kts | 7° |
| 2026-05-06 23:54 | 41.18987 | -73.21437 | 21802 ft | 465 kts | 7° |
| 2026-05-06 23:55 | 41.22108 | -73.20196 | 22376 ft | 468 kts | 7° |
| 2026-05-06 23:55 | 41.25217 | -73.18956 | 22983 ft | 471 kts | 6° |
| 2026-05-06 23:55 | 41.28376 | -73.17694 | 23567 ft | 474 kts | 6° |
| 2026-05-06 23:55 | 41.31543 | -73.16400 | 24043 ft | 481 kts | 8° |
| 2026-05-06 23:56 | 41.34700 | -73.14622 | 24517 ft | 499 kts | 18° |
| 2026-05-06 23:56 | 41.37613 | -73.12116 | 25021 ft | 517 kts | 31° |
| 2026-05-06 23:56 | 41.40254 | -73.08720 | 25474 ft | 534 kts | 43° |
| 2026-05-06 23:56 | 41.42493 | -73.04742 | 25929 ft | 544 kts | 51° |
| 2026-05-06 23:57 | 41.44504 | -73.00398 | 26345 ft | 552 kts | 55° |
| 2026-05-06 23:57 | 41.46407 | -72.95898 | 26768 ft | 558 kts | 57° |
| 2026-05-06 23:57 | 41.48286 | -72.91357 | 27159 ft | 562 kts | 57° |
| 2026-05-06 23:57 | 41.50188 | -72.86807 | 27610 ft | 565 kts | 56° |
| 2026-05-06 23:58 | 41.52130 | -72.82244 | 28028 ft | 569 kts | 56° |
| 2026-05-06 23:58 | 41.54128 | -72.77624 | 28461 ft | 573 kts | 55° |
| 2026-05-06 23:58 | 41.56130 | -72.73036 | 28862 ft | 577 kts | 55° |
| 2026-05-06 23:58 | 41.58147 | -72.68433 | 29240 ft | 581 kts | 55° |
| 2026-05-06 23:59 | 41.60226 | -72.63685 | 29605 ft | 585 kts | 55° |
| 2026-05-06 23:59 | 41.62268 | -72.59016 | 29928 ft | 588 kts | 56° |
| 2026-05-06 23:59 | 41.64324 | -72.54297 | 30404 ft | 587 kts | 55° |
| 2026-05-06 23:59 | 41.66396 | -72.49588 | 30937 ft | 585 kts | 54° |
| 2026-05-07 00:00 | 41.68483 | -72.44949 | 31358 ft | 585 kts | 53° |
| 2026-05-07 00:00 | 41.70592 | -72.40304 | 31745 ft | 585 kts | 53° |
| 2026-05-07 00:00 | 41.72712 | -72.35637 | 32196 ft | 584 kts | 53° |
| 2026-05-07 00:00 | 41.74142 | -72.32479 | 32506 ft | 584 kts | 53° |
| 2026-05-07 00:01 | 41.76902 | -72.26352 | 33087 ft | 583 kts | 53° |
| 2026-05-07 00:01 | 41.78972 | -72.21734 | 33530 ft | 580 kts | 53° |
| 2026-05-07 00:01 | 41.81038 | -72.17110 | 33969 ft | 578 kts | 53° |
| 2026-05-07 00:01 | 41.83110 | -72.12465 | 34345 ft | 578 kts | 53° |
| 2026-05-07 00:02 | 41.85160 | -72.07861 | 34655 ft | 578 kts | 53° |
| 2026-05-07 00:02 | 41.87216 | -72.03241 | 34971 ft | 577 kts | 53° |
| 2026-05-07 00:02 | 41.89240 | -71.98683 | 35304 ft | 576 kts | 53° |
| 2026-05-07 00:02 | 41.91289 | -71.94062 | 35615 ft | 576 kts | 53° |
| 2026-05-07 00:03 | 41.93334 | -71.89445 | 35898 ft | 575 kts | 53° |
| 2026-05-07 00:03 | 41.95468 | -71.84914 | 36224 ft | 568 kts | 46° |
| 2026-05-07 00:03 | 41.97967 | -71.80877 | 36596 ft | 559 kts | 40° |
| 2026-05-07 00:03 | 42.00574 | -71.76978 | 36777 ft | 560 kts | 40° |
| 2026-05-07 00:04 | 42.05866 | -71.69205 | 36832 ft | 569 kts | 40° |
| 2026-05-07 00:04 | 42.11240 | -71.61297 | 36831 ft | 567 kts | 40° |
| 2026-05-07 00:05 | 42.16513 | -71.53482 | 36813 ft | 566 kts | 40° |
| 2026-05-07 00:05 | 42.21789 | -71.45636 | 36814 ft | 565 kts | 40° |
| 2026-05-07 00:06 | 42.27079 | -71.37752 | 36801 ft | 565 kts | 40° |
| 2026-05-07 00:06 | 42.32307 | -71.29942 | 36797 ft | 565 kts | 41° |
| 2026-05-07 00:07 | 42.37563 | -71.22067 | 36807 ft | 566 kts | 41° |
| 2026-05-07 00:07 | 42.42830 | -71.14153 | 36806 ft | 566 kts | 41° |
| 2026-05-07 00:08 | 42.48097 | -71.06217 | 36804 ft | 566 kts | 41° |
| 2026-05-07 00:08 | 42.53365 | -70.98258 | 36794 ft | 566 kts | 41° |
| 2026-05-07 00:09 | 42.58612 | -70.90310 | 36795 ft | 566 kts | 41° |
| 2026-05-07 00:09 | 42.63884 | -70.82305 | 36794 ft | 566 kts | 42° |
| 2026-05-07 00:10 | 42.69122 | -70.74325 | 36796 ft | 565 kts | 42° |
| 2026-05-07 00:10 | 42.74308 | -70.66404 | 36796 ft | 565 kts | 42° |
| 2026-05-07 00:11 | 42.79542 | -70.58391 | 36793 ft | 565 kts | 43° |
| 2026-05-07 00:11 | 42.84727 | -70.50429 | 36785 ft | 565 kts | 43° |
| 2026-05-07 00:12 | 42.89944 | -70.42393 | 36793 ft | 565 kts | 43° |
| 2026-05-07 00:12 | 42.95103 | -70.34428 | 36791 ft | 565 kts | 43° |
| 2026-05-07 00:13 | 43.00327 | -70.26337 | 36790 ft | 564 kts | 43° |
| 2026-05-07 00:13 | 43.05517 | -70.18280 | 36773 ft | 564 kts | 44° |
| 2026-05-07 00:14 | 43.10696 | -70.10216 | 36790 ft | 563 kts | 44° |
| 2026-05-07 00:14 | 43.15820 | -70.02214 | 36797 ft | 563 kts | 44° |
| 2026-05-07 00:15 | 43.20988 | -69.94124 | 36837 ft | 563 kts | 44° |
| 2026-05-07 00:15 | 43.26167 | -69.85992 | 36801 ft | 563 kts | 44° |
| 2026-05-07 00:16 | 43.30453 | -69.79246 | 36804 ft | 563 kts | 44° |
| 2026-05-07 00:16 | 43.36428 | -69.69813 | 36817 ft | 563 kts | 44° |
| 2026-05-07 00:17 | 43.41559 | -69.61687 | 36811 ft | 562 kts | 44° |
| 2026-05-07 00:17 | 43.46659 | -69.53589 | 36813 ft | 561 kts | 45° |
| 2026-05-07 00:18 | 43.50960 | -69.46743 | 36859 ft | 562 kts | 45° |
| 2026-05-07 00:18 | 43.56045 | -69.38626 | 36813 ft | 560 kts | 45° |
| 2026-05-07 00:19 | 43.61120 | -69.30502 | 36814 ft | 560 kts | 45° |
| 2026-05-07 00:19 | 43.66206 | -69.22340 | 36823 ft | 560 kts | 45° |
| 2026-05-07 00:20 | 43.71279 | -69.14175 | 36812 ft | 559 kts | 46° |
| 2026-05-07 00:20 | 43.76333 | -69.06015 | 36808 ft | 559 kts | 46° |
| 2026-05-07 00:21 | 43.81387 | -68.97836 | 36828 ft | 559 kts | 46° |
| 2026-05-07 00:21 | 43.86398 | -68.89698 | 36812 ft | 559 kts | 46° |
| 2026-05-07 00:22 | 43.91435 | -68.81497 | 36812 ft | 558 kts | 46° |
| 2026-05-07 00:22 | 43.96475 | -68.73270 | 36822 ft | 558 kts | 47° |
| 2026-05-07 00:23 | 44.01489 | -68.65059 | 36815 ft | 557 kts | 47° |
| 2026-05-07 00:23 | 44.06481 | -68.56861 | 36818 ft | 557 kts | 47° |
| 2026-05-07 00:24 | 44.11486 | -68.48620 | 36837 ft | 557 kts | 47° |
| 2026-05-07 00:24 | 44.16487 | -68.40359 | 36835 ft | 555 kts | 47° |
| 2026-05-07 00:25 | 44.21386 | -68.32245 | 36833 ft | 555 kts | 47° |
| 2026-05-07 00:25 | 44.26368 | -68.23969 | 36846 ft | 555 kts | 48° |
| 2026-05-07 00:26 | 44.31309 | -68.15739 | 36842 ft | 555 kts | 48° |
| 2026-05-07 00:26 | 44.36245 | -68.07491 | 36846 ft | 555 kts | 48° |
| 2026-05-07 00:27 | 44.41206 | -67.99179 | 36857 ft | 555 kts | 49° |
| 2026-05-07 00:27 | 44.46114 | -67.90931 | 36853 ft | 554 kts | 49° |
| 2026-05-07 00:28 | 44.51077 | -67.82568 | 36863 ft | 554 kts | 49° |
| 2026-05-07 00:28 | 44.55974 | -67.74290 | 36868 ft | 554 kts | 49° |
| 2026-05-07 00:29 | 44.60889 | -67.65959 | 36869 ft | 554 kts | 49° |
| 2026-05-07 00:30 | 44.70682 | -67.49285 | 36858 ft | 554 kts | 49° |
| 2026-05-07 00:30 | 44.75599 | -67.40879 | 36870 ft | 554 kts | 49° |
| 2026-05-07 00:31 | 44.80471 | -67.32522 | 36870 ft | 554 kts | 49° |
| 2026-05-07 00:31 | 44.85334 | -67.24156 | 36872 ft | 554 kts | 50° |
| 2026-05-07 00:32 | 44.90204 | -67.15753 | 36878 ft | 554 kts | 50° |
| 2026-05-07 00:32 | 44.95068 | -67.07296 | 36877 ft | 554 kts | 50° |
| 2026-05-07 00:33 | 44.99888 | -66.98829 | 36877 ft | 554 kts | 50° |
| 2026-05-07 00:33 | 45.04712 | -66.90339 | 36891 ft | 554 kts | 51° |
| 2026-05-07 00:34 | 45.09535 | -66.81834 | 36886 ft | 554 kts | 51° |
| 2026-05-07 00:34 | 45.14350 | -66.73321 | 36888 ft | 555 kts | 51° |
| 2026-05-07 00:35 | 45.19162 | -66.64788 | 36898 ft | 554 kts | 51° |
| 2026-05-07 00:35 | 45.23990 | -66.56203 | 36899 ft | 554 kts | 51° |
| 2026-05-07 00:36 | 45.28144 | -66.48792 | 36754 ft | 550 kts | 51° |
| 2026-05-07 00:36 | 45.30478 | -66.44619 | 36971 ft | 546 kts | 51° |
| 2026-05-07 00:36 | 45.32832 | -66.40405 | 36913 ft | 543 kts | 51° |
| 2026-05-07 00:37 | 45.37491 | -66.32049 | 36914 ft | 544 kts | 51° |
| 2026-05-07 00:37 | 45.42155 | -66.23658 | 36921 ft | 545 kts | 51° |
| 2026-05-07 00:38 | 45.46886 | -66.15121 | 36946 ft | 545 kts | 52° |
| 2026-05-07 00:38 | 45.51570 | -66.06642 | 36924 ft | 545 kts | 52° |
| 2026-05-07 00:39 | 45.56234 | -65.98174 | 36920 ft | 546 kts | 52° |
| 2026-05-07 00:39 | 45.60922 | -65.89638 | 36916 ft | 546 kts | 52° |
| 2026-05-07 00:40 | 45.65587 | -65.81120 | 36901 ft | 546 kts | 52° |
| 2026-05-07 00:40 | 45.70281 | -65.72521 | 36902 ft | 546 kts | 52° |
| 2026-05-07 00:41 | 45.74945 | -65.63950 | 36892 ft | 546 kts | 52° |
| 2026-05-07 00:41 | 45.79569 | -65.55425 | 36893 ft | 546 kts | 52° |
| 2026-05-07 00:42 | 45.84226 | -65.46815 | 36886 ft | 547 kts | 52° |
| 2026-05-07 00:42 | 45.88898 | -65.38150 | 36881 ft | 547 kts | 53° |
| 2026-05-07 00:43 | 45.93541 | -65.29514 | 36883 ft | 547 kts | 53° |
| 2026-05-07 00:43 | 45.98191 | -65.20836 | 36873 ft | 548 kts | 53° |
| 2026-05-07 00:44 | 46.02851 | -65.12115 | 36879 ft | 549 kts | 53° |
| 2026-05-07 00:44 | 46.07490 | -65.03405 | 36878 ft | 549 kts | 53° |
| 2026-05-07 00:45 | 46.12116 | -64.94693 | 36876 ft | 549 kts | 53° |
| 2026-05-07 00:45 | 46.16774 | -64.85893 | 36876 ft | 549 kts | 53° |
| 2026-05-07 00:46 | 46.21383 | -64.77158 | 36878 ft | 550 kts | 53° |
| 2026-05-07 00:46 | 46.26018 | -64.68343 | 36915 ft | 550 kts | 53° |
| 2026-05-07 00:47 | 46.30625 | -64.59556 | 36903 ft | 551 kts | 53° |
| 2026-05-07 00:47 | 46.35273 | -64.50664 | 36891 ft | 551 kts | 53° |
| 2026-05-07 00:48 | 46.39861 | -64.41856 | 36886 ft | 552 kts | 53° |
| 2026-05-07 00:48 | 46.44468 | -64.32986 | 36880 ft | 552 kts | 53° |
| 2026-05-07 00:49 | 46.49082 | -64.24075 | 36880 ft | 552 kts | 54° |
| 2026-05-07 00:49 | 46.53705 | -64.15117 | 36886 ft | 553 kts | 54° |
| 2026-05-07 00:50 | 46.58286 | -64.06212 | 36891 ft | 551 kts | 54° |
| 2026-05-07 00:50 | 46.62875 | -63.97262 | 36892 ft | 550 kts | 54° |
| 2026-05-07 00:51 | 46.67430 | -63.88349 | 36895 ft | 550 kts | 54° |
| 2026-05-07 00:51 | 46.71998 | -63.79384 | 36895 ft | 550 kts | 54° |
| 2026-05-07 00:52 | 46.76542 | -63.70435 | 36902 ft | 551 kts | 55° |
| 2026-05-07 00:52 | 46.81096 | -63.61439 | 36903 ft | 551 kts | 55° |
| 2026-05-07 00:53 | 46.85648 | -63.52417 | 36905 ft | 552 kts | 55° |
| 2026-05-07 00:53 | 46.90215 | -63.43336 | 36903 ft | 553 kts | 55° |
| 2026-05-07 00:54 | 46.94749 | -63.34292 | 36908 ft | 553 kts | 55° |
| 2026-05-07 00:54 | 46.99275 | -63.25233 | 36918 ft | 554 kts | 55° |
| 2026-05-07 00:55 | 47.03819 | -63.16108 | 36903 ft | 554 kts | 55° |
| 2026-05-07 00:55 | 47.08381 | -63.06917 | 36903 ft | 554 kts | 56° |
| 2026-05-07 00:56 | 47.12895 | -62.97793 | 36914 ft | 554 kts | 56° |
| 2026-05-07 00:56 | 47.17412 | -62.88632 | 36914 ft | 555 kts | 56° |
| 2026-05-07 00:57 | 47.21919 | -62.79461 | 36911 ft | 556 kts | 56° |
| 2026-05-07 00:57 | 47.26468 | -62.70173 | 36908 ft | 557 kts | 56° |
| 2026-05-07 00:58 | 47.30963 | -62.60966 | 36926 ft | 557 kts | 56° |
| 2026-05-07 00:58 | 47.35479 | -62.51683 | 36922 ft | 558 kts | 56° |
| 2026-05-07 00:59 | 47.42253 | -62.37703 | 36922 ft | 559 kts | 56° |
| 2026-05-07 01:00 | 47.46777 | -62.28323 | 36917 ft | 559 kts | 56° |
| 2026-05-07 01:00 | 47.51286 | -62.18947 | 36946 ft | 558 kts | 55° |
| 2026-05-07 01:01 | 47.55768 | -62.09593 | 36944 ft | 558 kts | 56° |
| 2026-05-07 01:01 | 47.60224 | -62.00262 | 36953 ft | 557 kts | 56° |
| 2026-05-07 01:02 | 47.64695 | -61.90867 | 36926 ft | 557 kts | 56° |
| 2026-05-07 01:02 | 47.69147 | -61.81480 | 36942 ft | 557 kts | 56° |
| 2026-05-07 01:03 | 47.73631 | -61.71992 | 36942 ft | 557 kts | 56° |
| 2026-05-07 01:03 | 47.78041 | -61.62629 | 36952 ft | 557 kts | 56° |
| 2026-05-07 01:04 | 47.82492 | -61.53147 | 36953 ft | 557 kts | 56° |
| 2026-05-07 01:04 | 47.86920 | -61.43680 | 36961 ft | 557 kts | 56° |
| 2026-05-07 01:05 | 47.91335 | -61.34209 | 36957 ft | 557 kts | 56° |
| 2026-05-07 01:05 | 47.95749 | -61.24710 | 36953 ft | 556 kts | 56° |
| 2026-05-07 01:06 | 48.00143 | -61.15217 | 36961 ft | 555 kts | 56° |
| 2026-05-07 01:06 | 48.04519 | -61.05728 | 36961 ft | 555 kts | 56° |
| 2026-05-07 01:07 | 48.08149 | -60.97834 | 36977 ft | 556 kts | 56° |
| 2026-05-07 01:07 | 48.13245 | -60.86713 | 36962 ft | 556 kts | 56° |
| 2026-05-07 01:08 | 48.16911 | -60.78684 | 36955 ft | 557 kts | 56° |
| 2026-05-07 01:08 | 48.21243 | -60.69166 | 36977 ft | 557 kts | 56° |
| 2026-05-07 01:09 | 48.25609 | -60.59541 | 36976 ft | 557 kts | 56° |
| 2026-05-07 01:09 | 48.29960 | -60.49913 | 36976 ft | 558 kts | 56° |
| 2026-05-07 01:10 | 48.34306 | -60.40262 | 36975 ft | 558 kts | 56° |
| 2026-05-07 01:10 | 48.38664 | -60.30548 | 36943 ft | 557 kts | 56° |
| 2026-05-07 01:11 | 48.42958 | -60.20947 | 36989 ft | 554 kts | 55° |
| 2026-05-07 01:11 | 48.47229 | -60.11361 | 36997 ft | 552 kts | 55° |
| 2026-05-07 01:12 | 48.51512 | -60.01712 | 36992 ft | 552 kts | 55° |
| 2026-05-07 01:12 | 48.55780 | -59.92065 | 36985 ft | 552 kts | 55° |
| 2026-05-07 01:13 | 48.60032 | -59.82420 | 36991 ft | 552 kts | 56° |
| 2026-05-07 01:13 | 48.64259 | -59.72794 | 37011 ft | 552 kts | 56° |
| 2026-05-07 01:14 | 48.68488 | -59.63130 | 36998 ft | 551 kts | 55° |
| 2026-05-07 01:14 | 48.72711 | -59.53448 | 36996 ft | 550 kts | 56° |
| 2026-05-07 01:15 | 48.76922 | -59.43757 | 37004 ft | 550 kts | 56° |
| 2026-05-07 01:15 | 48.81122 | -59.34056 | 37007 ft | 550 kts | 56° |
| 2026-05-07 01:16 | 48.85294 | -59.24384 | 36996 ft | 549 kts | 56° |
| 2026-05-07 01:16 | 48.89469 | -59.14672 | 36996 ft | 546 kts | 56° |
| 2026-05-07 01:17 | 48.93621 | -59.04975 | 37011 ft | 546 kts | 56° |
| 2026-05-07 01:17 | 48.97750 | -58.95300 | 37006 ft | 546 kts | 56° |
| 2026-05-07 01:18 | 49.01875 | -58.85599 | 37007 ft | 545 kts | 56° |
| 2026-05-07 01:18 | 49.05965 | -58.75945 | 37005 ft | 546 kts | 56° |
| 2026-05-07 01:19 | 49.10104 | -58.66139 | 37002 ft | 546 kts | 56° |
| 2026-05-07 01:19 | 49.14167 | -58.56480 | 37013 ft | 546 kts | 56° |
| 2026-05-07 01:20 | 49.18273 | -58.46680 | 37012 ft | 546 kts | 56° |
| 2026-05-07 01:20 | 49.22346 | -58.36926 | 37013 ft | 546 kts | 56° |
| 2026-05-07 01:21 | 49.26420 | -58.27130 | 37011 ft | 545 kts | 57° |
| 2026-05-07 01:21 | 49.30464 | -58.17372 | 37004 ft | 543 kts | 56° |
| 2026-05-07 01:22 | 49.34523 | -58.07542 | 37030 ft | 539 kts | 57° |
| 2026-05-07 01:22 | 49.38488 | -57.97904 | 37030 ft | 538 kts | 57° |
| 2026-05-07 01:23 | 49.42473 | -57.88181 | 37033 ft | 538 kts | 57° |
| 2026-05-07 01:23 | 49.46441 | -57.78468 | 37031 ft | 538 kts | 57° |
| 2026-05-07 01:24 | 49.50439 | -57.68644 | 37042 ft | 538 kts | 57° |
| 2026-05-07 01:24 | 49.54397 | -57.58881 | 37057 ft | 538 kts | 57° |
| 2026-05-07 01:25 | 49.58323 | -57.49160 | 37043 ft | 538 kts | 57° |
| 2026-05-07 01:25 | 49.62273 | -57.39342 | 37043 ft | 538 kts | 57° |
| 2026-05-07 01:26 | 49.66199 | -57.29552 | 37046 ft | 538 kts | 57° |
| 2026-05-07 01:26 | 49.70143 | -57.19679 | 37055 ft | 538 kts | 57° |
| 2026-05-07 01:27 | 49.74040 | -57.09883 | 37037 ft | 538 kts | 57° |
| 2026-05-07 01:27 | 49.77973 | -56.99964 | 37043 ft | 536 kts | 57° |
| 2026-05-07 01:28 | 49.81829 | -56.90201 | 37041 ft | 534 kts | 57° |
| 2026-05-07 01:28 | 49.85698 | -56.80368 | 37045 ft | 535 kts | 57° |
| 2026-05-07 01:29 | 49.89579 | -56.70469 | 37039 ft | 536 kts | 57° |
| 2026-05-07 01:29 | 49.93433 | -56.60600 | 37039 ft | 536 kts | 57° |
| 2026-05-07 01:30 | 49.97279 | -56.50717 | 37036 ft | 536 kts | 57° |
| 2026-05-07 01:30 | 50.01137 | -56.40761 | 37046 ft | 536 kts | 57° |
| 2026-05-07 01:31 | 50.04986 | -56.30795 | 37042 ft | 536 kts | 57° |
| 2026-05-07 01:31 | 50.08774 | -56.20947 | 37033 ft | 536 kts | 58° |
| 2026-05-07 01:32 | 50.12633 | -56.10875 | 37035 ft | 536 kts | 58° |
| 2026-05-07 01:32 | 50.16422 | -56.00948 | 37035 ft | 536 kts | 58° |
| 2026-05-07 01:33 | 50.20223 | -55.90952 | 37023 ft | 535 kts | 57° |
| 2026-05-07 01:33 | 50.24003 | -55.80971 | 37032 ft | 532 kts | 57° |
| 2026-05-07 01:34 | 50.27758 | -55.71021 | 37045 ft | 531 kts | 57° |
| 2026-05-07 01:34 | 50.31372 | -55.61408 | 37036 ft | 531 kts | 57° |
| 2026-05-07 01:35 | 50.35076 | -55.51519 | 37035 ft | 530 kts | 58° |
| 2026-05-07 01:35 | 50.38783 | -55.41581 | 37034 ft | 531 kts | 58° |
| 2026-05-07 01:36 | 50.42503 | -55.31572 | 37042 ft | 531 kts | 58° |
| 2026-05-07 01:36 | 50.46123 | -55.21797 | 37165 ft | 526 kts | 58° |
| 2026-05-07 01:37 | 50.49787 | -55.11859 | 37035 ft | 528 kts | 58° |
| 2026-05-07 01:37 | 50.53459 | -55.01863 | 37040 ft | 529 kts | 58° |
| 2026-05-07 01:38 | 50.57130 | -54.91833 | 37043 ft | 529 kts | 58° |
| 2026-05-07 01:38 | 50.60793 | -54.81782 | 37043 ft | 529 kts | 58° |
| 2026-05-07 01:39 | 50.64445 | -54.71727 | 37043 ft | 529 kts | 58° |
| 2026-05-07 01:39 | 50.68110 | -54.61593 | 37043 ft | 530 kts | 58° |
| 2026-05-07 01:40 | 50.71747 | -54.51495 | 37050 ft | 529 kts | 58° |
| 2026-05-07 01:40 | 50.75343 | -54.41473 | 37048 ft | 528 kts | 58° |
| 2026-05-07 01:41 | 50.78949 | -54.31382 | 37051 ft | 528 kts | 58° |
| 2026-05-07 01:41 | 50.82550 | -54.21270 | 37051 ft | 528 kts | 59° |
| 2026-05-07 01:42 | 50.86160 | -54.11089 | 37064 ft | 528 kts | 59° |
| 2026-05-07 01:42 | 50.89723 | -54.00999 | 37070 ft | 527 kts | 59° |
| 2026-05-07 01:43 | 50.93289 | -53.90862 | 37047 ft | 527 kts | 59° |
| 2026-05-07 01:43 | 50.96870 | -53.80643 | 37049 ft | 527 kts | 59° |
| 2026-05-07 01:44 | 51.00399 | -53.70528 | 37060 ft | 527 kts | 59° |
| 2026-05-07 01:44 | 51.03949 | -53.60314 | 37058 ft | 527 kts | 59° |
| 2026-05-07 01:45 | 51.07465 | -53.50158 | 37069 ft | 525 kts | 59° |
| 2026-05-07 01:45 | 51.10976 | -53.39974 | 37064 ft | 523 kts | 59° |
| 2026-05-07 01:46 | 51.14466 | -53.29808 | 37066 ft | 523 kts | 59° |
| 2026-05-07 01:46 | 51.17917 | -53.19643 | 37065 ft | 524 kts | 61° |
| 2026-05-07 01:47 | 51.20878 | -53.09009 | 37072 ft | 526 kts | 66° |
| 2026-05-07 01:47 | 51.23650 | -52.98244 | 37075 ft | 526 kts | 65° |
| 2026-05-07 01:48 | 51.26514 | -52.87471 | 37077 ft | 525 kts | 65° |
| 2026-05-07 01:48 | 51.29398 | -52.76824 | 37075 ft | 525 kts | 65° |
| 2026-05-07 01:49 | 51.32312 | -52.66074 | 37086 ft | 525 kts | 65° |
| 2026-05-07 01:49 | 51.35201 | -52.55350 | 37086 ft | 525 kts | 65° |
| 2026-05-07 01:50 | 51.38088 | -52.44571 | 37101 ft | 525 kts | 65° |
| 2026-05-07 01:50 | 51.40941 | -52.33866 | 37076 ft | 520 kts | 65° |
| 2026-05-07 01:51 | 51.43750 | -52.23276 | 37098 ft | 519 kts | 65° |
| 2026-05-07 01:51 | 51.46558 | -52.12645 | 37107 ft | 519 kts | 65° |
| 2026-05-07 01:52 | 51.49373 | -52.01938 | 37105 ft | 519 kts | 65° |
| 2026-05-07 01:52 | 51.52164 | -51.91266 | 37086 ft | 518 kts | 65° |
| 2026-05-07 01:53 | 51.54938 | -51.80614 | 37089 ft | 517 kts | 65° |
| 2026-05-07 01:53 | 51.57708 | -51.69925 | 37111 ft | 517 kts | 66° |
| 2026-05-07 01:54 | 51.60458 | -51.59266 | 37112 ft | 517 kts | 66° |
| 2026-05-07 01:54 | 51.63193 | -51.48614 | 37097 ft | 517 kts | 65° |
| 2026-05-07 01:55 | 51.65944 | -51.37842 | 37106 ft | 515 kts | 65° |
| 2026-05-07 01:55 | 51.68659 | -51.27166 | 37106 ft | 514 kts | 65° |
| 2026-05-07 01:56 | 51.71337 | -51.16587 | 37107 ft | 514 kts | 65° |
| 2026-05-07 01:56 | 51.74030 | -51.05899 | 37105 ft | 514 kts | 65° |
| 2026-05-07 01:57 | 51.76716 | -50.95184 | 37103 ft | 515 kts | 66° |
| 2026-05-07 01:57 | 51.78939 | -50.86278 | 37110 ft | 516 kts | 66° |
| 2026-05-07 01:58 | 51.81620 | -50.75488 | 37103 ft | 516 kts | 66° |
| 2026-05-07 01:58 | 51.84712 | -50.62977 | 37108 ft | 516 kts | 66° |
| 2026-05-07 01:59 | 51.86932 | -50.53952 | 37135 ft | 516 kts | 66° |
| 2026-05-07 01:59 | 51.89573 | -50.43166 | 37134 ft | 516 kts | 66° |
| 2026-05-07 02:00 | 51.92203 | -50.32374 | 37108 ft | 516 kts | 66° |
| 2026-05-07 02:00 | 51.94825 | -50.21554 | 37125 ft | 514 kts | 66° |
| 2026-05-07 02:01 | 51.97430 | -50.10761 | 37148 ft | 515 kts | 66° |
| 2026-05-07 02:01 | 51.99955 | -49.99828 | 37121 ft | 517 kts | 72° |
| 2026-05-07 02:02 | 52.01697 | -49.88487 | 37118 ft | 518 kts | 75° |
| 2026-05-07 02:02 | 52.03316 | -49.77176 | 37138 ft | 518 kts | 75° |
| 2026-05-07 02:03 | 52.04934 | -49.65755 | 37140 ft | 518 kts | 75° |
| 2026-05-07 02:03 | 52.06543 | -49.54358 | 37128 ft | 518 kts | 75° |
| 2026-05-07 02:04 | 52.08147 | -49.42936 | 37127 ft | 518 kts | 75° |
| 2026-05-07 02:04 | 52.09735 | -49.31547 | 37143 ft | 516 kts | 75° |
| 2026-05-07 02:05 | 52.11318 | -49.20102 | 37123 ft | 515 kts | 75° |
| 2026-05-07 02:05 | 52.12874 | -49.08768 | 37121 ft | 516 kts | 75° |
| 2026-05-07 02:06 | 52.14428 | -48.97360 | 37139 ft | 516 kts | 75° |
| 2026-05-07 02:06 | 52.15968 | -48.85965 | 37132 ft | 515 kts | 75° |
| 2026-05-07 02:07 | 52.17497 | -48.74559 | 37132 ft | 515 kts | 75° |
| 2026-05-07 02:07 | 52.19759 | -48.57527 | 37135 ft | 515 kts | 75° |
| 2026-05-07 02:08 | 52.21260 | -48.46097 | 37130 ft | 513 kts | 75° |
| 2026-05-07 02:08 | 52.22739 | -48.34754 | 37140 ft | 511 kts | 75° |
| 2026-05-07 02:09 | 52.24207 | -48.23412 | 37138 ft | 511 kts | 75° |
| 2026-05-07 02:09 | 52.25661 | -48.12080 | 37138 ft | 511 kts | 75° |
| 2026-05-07 02:10 | 52.27106 | -48.00733 | 37140 ft | 512 kts | 75° |
| 2026-05-07 02:10 | 52.28546 | -47.89326 | 37140 ft | 512 kts | 75° |
| 2026-05-07 02:11 | 52.29966 | -47.77978 | 37139 ft | 512 kts | 75° |
| 2026-05-07 02:11 | 52.31386 | -47.66543 | 37141 ft | 511 kts | 75° |
| 2026-05-07 02:12 | 52.32782 | -47.55193 | 37140 ft | 509 kts | 76° |
| 2026-05-07 02:12 | 52.34170 | -47.43822 | 37141 ft | 508 kts | 76° |
| 2026-05-07 02:13 | 52.35545 | -47.32472 | 37143 ft | 509 kts | 76° |
| 2026-05-07 02:13 | 52.36905 | -47.21134 | 37144 ft | 509 kts | 76° |
| 2026-05-07 02:14 | 52.38251 | -47.09823 | 37145 ft | 509 kts | 76° |
| 2026-05-07 02:14 | 52.39591 | -46.98460 | 37149 ft | 509 kts | 76° |
| 2026-05-07 02:15 | 52.40922 | -46.87081 | 37149 ft | 509 kts | 76° |
| 2026-05-07 02:15 | 52.42247 | -46.75643 | 37148 ft | 508 kts | 76° |
| 2026-05-07 02:16 | 52.43553 | -46.64262 | 37157 ft | 506 kts | 76° |
| 2026-05-07 02:16 | 52.44842 | -46.52944 | 37157 ft | 506 kts | 76° |
| 2026-05-07 02:17 | 52.46116 | -46.41649 | 37157 ft | 507 kts | 76° |
| 2026-05-07 02:17 | 52.47388 | -46.30278 | 37159 ft | 507 kts | 76° |
| 2026-05-07 02:18 | 52.48649 | -46.18888 | 37159 ft | 507 kts | 76° |
| 2026-05-07 02:18 | 52.49893 | -46.07554 | 37164 ft | 507 kts | 77° |
| 2026-05-07 02:19 | 52.51129 | -45.96180 | 37159 ft | 506 kts | 77° |
| 2026-05-07 02:19 | 52.52357 | -45.84780 | 37164 ft | 505 kts | 77° |
| 2026-05-07 02:20 | 52.53561 | -45.73483 | 37164 ft | 503 kts | 77° |
| 2026-05-07 02:20 | 52.54759 | -45.62155 | 37165 ft | 503 kts | 77° |
| 2026-05-07 02:21 | 52.55945 | -45.50819 | 37171 ft | 504 kts | 77° |
| 2026-05-07 02:21 | 52.57127 | -45.39413 | 37164 ft | 503 kts | 77° |
| 2026-05-07 02:22 | 52.58288 | -45.28110 | 37165 ft | 503 kts | 77° |
| 2026-05-07 02:22 | 52.59431 | -45.16858 | 37167 ft | 504 kts | 77° |
| 2026-05-07 02:23 | 52.60575 | -45.05488 | 37173 ft | 504 kts | 77° |
| 2026-05-07 02:23 | 52.61703 | -44.94171 | 37173 ft | 504 kts | 77° |
| 2026-05-07 02:24 | 52.62828 | -44.82757 | 37176 ft | 504 kts | 77° |
| 2026-05-07 02:24 | 52.63936 | -44.71403 | 37176 ft | 504 kts | 78° |
| 2026-05-07 02:25 | 52.65038 | -44.59994 | 37176 ft | 504 kts | 78° |
| 2026-05-07 02:25 | 52.66130 | -44.48575 | 37175 ft | 504 kts | 78° |
| 2026-05-07 02:26 | 52.67199 | -44.37275 | 37195 ft | 504 kts | 78° |
| 2026-05-07 02:26 | 52.68271 | -44.25816 | 37182 ft | 503 kts | 78° |
| 2026-05-07 02:27 | 52.69326 | -44.14418 | 37182 ft | 503 kts | 78° |
| 2026-05-07 02:27 | 52.70366 | -44.03048 | 37184 ft | 501 kts | 78° |
| 2026-05-07 02:28 | 52.71396 | -43.91679 | 37183 ft | 501 kts | 78° |
| 2026-05-07 02:28 | 52.72415 | -43.80307 | 37188 ft | 501 kts | 78° |
| 2026-05-07 02:29 | 52.73420 | -43.68959 | 37179 ft | 500 kts | 78° |
| 2026-05-07 02:29 | 52.74408 | -43.57670 | 37181 ft | 500 kts | 78° |
| 2026-05-07 02:30 | 52.75389 | -43.46342 | 37200 ft | 500 kts | 78° |
| 2026-05-07 02:30 | 52.76363 | -43.34968 | 37212 ft | 500 kts | 78° |
| 2026-05-07 02:31 | 52.77324 | -43.23615 | 37208 ft | 500 kts | 78° |
| 2026-05-07 02:31 | 52.78270 | -43.12283 | 37199 ft | 497 kts | 78° |
| 2026-05-07 02:32 | 52.79207 | -43.00933 | 37204 ft | 496 kts | 78° |
| 2026-05-07 02:32 | 52.80125 | -42.89694 | 37208 ft | 496 kts | 78° |
| 2026-05-07 02:33 | 52.81040 | -42.78359 | 37209 ft | 496 kts | 79° |
| 2026-05-07 02:33 | 52.81937 | -42.67103 | 37214 ft | 496 kts | 79° |
| 2026-05-07 02:34 | 52.82830 | -42.55759 | 37218 ft | 497 kts | 79° |
| 2026-05-07 02:34 | 52.83711 | -42.44415 | 37213 ft | 496 kts | 79° |
| 2026-05-07 02:35 | 52.84577 | -42.33137 | 37224 ft | 497 kts | 78° |
| 2026-05-07 02:35 | 52.85437 | -42.21788 | 37217 ft | 497 kts | 78° |
| 2026-05-07 02:36 | 52.86287 | -42.10420 | 37216 ft | 498 kts | 79° |
| 2026-05-07 02:36 | 52.87122 | -41.99094 | 37234 ft | 498 kts | 78° |
| 2026-05-07 02:37 | 52.87948 | -41.87753 | 37219 ft | 498 kts | 78° |
| 2026-05-07 02:37 | 52.88770 | -41.76311 | 37219 ft | 498 kts | 79° |
| 2026-05-07 02:38 | 52.89576 | -41.64920 | 37222 ft | 498 kts | 79° |
| 2026-05-07 02:38 | 52.90374 | -41.53508 | 37222 ft | 498 kts | 79° |
| 2026-05-07 02:39 | 52.91157 | -41.42131 | 37225 ft | 498 kts | 79° |
| 2026-05-07 02:39 | 52.91928 | -41.30778 | 37222 ft | 497 kts | 79° |
| 2026-05-07 02:40 | 52.92689 | -41.19398 | 37224 ft | 497 kts | 79° |
| 2026-05-07 02:40 | 52.93440 | -41.08013 | 37225 ft | 497 kts | 79° |
| 2026-05-07 02:41 | 52.94181 | -40.96612 | 37227 ft | 497 kts | 79° |
| 2026-05-07 02:41 | 52.94911 | -40.85208 | 37227 ft | 497 kts | 79° |
| 2026-05-07 02:42 | 52.95628 | -40.73821 | 37241 ft | 497 kts | 79° |
| 2026-05-07 02:42 | 52.96333 | -40.62428 | 37232 ft | 496 kts | 79° |
| 2026-05-07 02:43 | 52.97025 | -40.51103 | 37237 ft | 495 kts | 79° |
| 2026-05-07 02:43 | 52.97711 | -40.39671 | 37236 ft | 493 kts | 79° |
| 2026-05-07 02:44 | 52.98380 | -40.28351 | 37232 ft | 493 kts | 79° |
| 2026-05-07 02:44 | 52.99029 | -40.17188 | 37227 ft | 493 kts | 79° |
| 2026-05-07 02:45 | 52.99680 | -40.05799 | 37231 ft | 492 kts | 79° |
| 2026-05-07 02:45 | 53.00754 | -39.94717 | 37232 ft | 486 kts | 72° |
| 2026-05-07 02:46 | 53.02323 | -39.83736 | 37468 ft | 487 kts | 71° |
| 2026-05-07 02:46 | 53.03100 | -39.78392 | 37777 ft | 486 kts | 71° |
| 2026-05-07 02:46 | 53.03905 | -39.72824 | 38056 ft | 487 kts | 72° |
| 2026-05-07 02:47 | 53.04693 | -39.67337 | 38214 ft | 489 kts | 72° |
| 2026-05-07 02:47 | 53.05471 | -39.61872 | 38241 ft | 490 kts | 72° |
| 2026-05-07 02:47 | 53.07031 | -39.50790 | 38227 ft | 489 kts | 72° |
| 2026-05-07 02:48 | 53.08562 | -39.39832 | 38230 ft | 489 kts | 72° |
| 2026-05-07 02:48 | 53.09844 | -39.30605 | 38230 ft | 490 kts | 72° |
| 2026-05-07 02:49 | 53.11464 | -39.18860 | 38225 ft | 490 kts | 72° |
| 2026-05-07 02:49 | 53.12976 | -39.07812 | 38225 ft | 490 kts | 72° |
| 2026-05-07 02:50 | 53.14232 | -38.98574 | 38227 ft | 490 kts | 72° |
| 2026-05-07 02:50 | 53.15725 | -38.87515 | 38228 ft | 490 kts | 72° |
| 2026-05-07 02:51 | 53.17215 | -38.76396 | 38227 ft | 490 kts | 72° |
| 2026-05-07 02:51 | 53.18677 | -38.65397 | 38220 ft | 490 kts | 72° |
| 2026-05-07 02:52 | 53.20142 | -38.54295 | 38221 ft | 491 kts | 72° |
| 2026-05-07 02:52 | 53.21610 | -38.43104 | 38224 ft | 494 kts | 72° |
| 2026-05-07 02:53 | 53.23070 | -38.31865 | 38226 ft | 494 kts | 72° |
| 2026-05-07 02:53 | 53.24504 | -38.20729 | 38224 ft | 494 kts | 73° |
| 2026-05-07 02:54 | 53.25948 | -38.09430 | 38219 ft | 494 kts | 73° |
| 2026-05-07 02:54 | 53.27363 | -37.98279 | 38226 ft | 495 kts | 73° |
| 2026-05-07 02:55 | 53.28782 | -37.87001 | 38220 ft | 496 kts | 73° |
| 2026-05-07 02:55 | 53.30189 | -37.75726 | 38220 ft | 496 kts | 73° |
| 2026-05-07 02:56 | 53.31587 | -37.64426 | 38220 ft | 496 kts | 73° |
| 2026-05-07 02:56 | 53.32974 | -37.53127 | 38218 ft | 496 kts | 73° |
| 2026-05-07 02:57 | 53.34343 | -37.41872 | 38223 ft | 495 kts | 73° |
| 2026-05-07 02:57 | 53.35716 | -37.30499 | 38220 ft | 495 kts | 73° |
| 2026-05-07 02:58 | 53.37049 | -37.19358 | 38223 ft | 495 kts | 73° |
| 2026-05-07 02:58 | 53.38393 | -37.08036 | 38223 ft | 495 kts | 73° |
| 2026-05-07 02:59 | 53.39727 | -36.96697 | 38265 ft | 495 kts | 74° |
| 2026-05-07 02:59 | 53.41045 | -36.85386 | 38221 ft | 495 kts | 74° |
| 2026-05-07 03:00 | 53.42363 | -36.73988 | 38225 ft | 495 kts | 74° |
| 2026-05-07 03:00 | 53.43650 | -36.62756 | 38214 ft | 495 kts | 74° |
| 2026-05-07 03:01 | 53.44943 | -36.51367 | 38211 ft | 495 kts | 74° |
| 2026-05-07 03:01 | 53.46222 | -36.40010 | 38227 ft | 495 kts | 74° |
| 2026-05-07 03:02 | 53.47481 | -36.28717 | 38210 ft | 495 kts | 75° |
| 2026-05-07 03:02 | 53.48746 | -36.17275 | 38210 ft | 495 kts | 75° |
| 2026-05-07 03:03 | 53.49984 | -36.05965 | 38209 ft | 495 kts | 75° |
| 2026-05-07 03:03 | 53.51219 | -35.94588 | 38210 ft | 495 kts | 75° |
| 2026-05-07 03:04 | 53.52444 | -35.83186 | 38206 ft | 495 kts | 75° |
| 2026-05-07 03:04 | 53.53658 | -35.71791 | 38211 ft | 495 kts | 75° |
| 2026-05-07 03:05 | 53.54862 | -35.60368 | 38211 ft | 495 kts | 75° |
| 2026-05-07 03:05 | 53.56051 | -35.48982 | 38211 ft | 495 kts | 75° |
| 2026-05-07 03:06 | 53.57225 | -35.37639 | 38208 ft | 495 kts | 75° |
| 2026-05-07 03:06 | 53.58394 | -35.26221 | 38220 ft | 495 kts | 75° |
| 2026-05-07 03:07 | 53.59550 | -35.14824 | 38206 ft | 495 kts | 76° |
| 2026-05-07 03:07 | 53.60694 | -35.03437 | 38207 ft | 495 kts | 76° |
| 2026-05-07 03:08 | 53.61839 | -34.91916 | 38214 ft | 495 kts | 76° |
| 2026-05-07 03:08 | 53.62965 | -34.80474 | 38206 ft | 495 kts | 76° |
| 2026-05-07 03:09 | 53.64076 | -34.69068 | 38214 ft | 496 kts | 76° |
| 2026-05-07 03:09 | 53.65179 | -34.57634 | 38211 ft | 496 kts | 76° |
| 2026-05-07 03:10 | 53.66274 | -34.46154 | 38211 ft | 496 kts | 76° |
| 2026-05-07 03:10 | 53.67362 | -34.34601 | 38206 ft | 497 kts | 76° |
| 2026-05-07 03:11 | 53.68330 | -34.23068 | 38206 ft | 497 kts | 78° |
| 2026-05-07 03:11 | 53.69241 | -34.11538 | 38208 ft | 498 kts | 78° |
| 2026-05-07 03:12 | 53.70158 | -33.99975 | 38203 ft | 498 kts | 78° |
| 2026-05-07 03:12 | 53.71082 | -33.88367 | 38202 ft | 498 kts | 78° |
| 2026-05-07 03:13 | 53.71994 | -33.76800 | 38196 ft | 498 kts | 78° |
| 2026-05-07 03:13 | 53.72900 | -33.65171 | 38193 ft | 498 kts | 78° |
| 2026-05-07 03:14 | 53.73786 | -33.53633 | 38191 ft | 498 kts | 78° |
| 2026-05-07 03:15 | 53.75104 | -33.36179 | 38194 ft | 498 kts | 78° |
| 2026-05-07 03:15 | 53.75964 | -33.24594 | 38195 ft | 498 kts | 78° |
| 2026-05-07 03:16 | 53.76817 | -33.12953 | 38184 ft | 498 kts | 78° |
| 2026-05-07 03:16 | 53.77657 | -33.01349 | 38184 ft | 497 kts | 78° |
| 2026-05-07 03:17 | 53.78483 | -32.89766 | 38181 ft | 497 kts | 78° |
| 2026-05-07 03:17 | 53.79301 | -32.78140 | 38181 ft | 498 kts | 78° |
| 2026-05-07 03:18 | 53.80105 | -32.66533 | 38178 ft | 498 kts | 79° |
| 2026-05-07 03:18 | 53.80902 | -32.54874 | 38176 ft | 498 kts | 79° |
| 2026-05-07 03:19 | 53.81686 | -32.43226 | 38173 ft | 498 kts | 79° |
| 2026-05-07 03:19 | 53.82458 | -32.31583 | 38172 ft | 499 kts | 79° |
| 2026-05-07 03:20 | 53.83220 | -32.19906 | 38164 ft | 499 kts | 79° |
| 2026-05-07 03:20 | 53.83971 | -32.08229 | 38162 ft | 499 kts | 79° |
| 2026-05-07 03:21 | 53.84707 | -31.96620 | 38156 ft | 499 kts | 79° |
| 2026-05-07 03:21 | 53.85435 | -31.84948 | 38169 ft | 498 kts | 80° |
| 2026-05-07 03:22 | 53.86150 | -31.73276 | 38162 ft | 498 kts | 80° |
| 2026-05-07 03:22 | 53.86855 | -31.61594 | 38154 ft | 498 kts | 80° |
| 2026-05-07 03:23 | 53.87549 | -31.49916 | 38155 ft | 498 kts | 80° |
| 2026-05-07 03:23 | 53.88231 | -31.38244 | 38185 ft | 498 kts | 80° |
| 2026-05-07 03:24 | 53.88905 | -31.26512 | 38155 ft | 499 kts | 80° |
| 2026-05-07 03:24 | 53.89565 | -31.14796 | 38148 ft | 500 kts | 80° |
| 2026-05-07 03:25 | 53.90213 | -31.03114 | 38147 ft | 500 kts | 81° |
| 2026-05-07 03:25 | 53.90850 | -30.91402 | 38147 ft | 500 kts | 81° |
| 2026-05-07 03:26 | 53.91477 | -30.79665 | 38168 ft | 500 kts | 81° |
| 2026-05-07 03:26 | 53.92094 | -30.67904 | 38140 ft | 501 kts | 81° |
| 2026-05-07 03:27 | 53.92701 | -30.56125 | 38136 ft | 500 kts | 81° |
| 2026-05-07 03:27 | 53.93293 | -30.44366 | 38137 ft | 499 kts | 81° |
| 2026-05-07 03:28 | 53.93873 | -30.32646 | 38139 ft | 499 kts | 81° |
| 2026-05-07 03:28 | 53.94443 | -30.20896 | 38138 ft | 499 kts | 82° |
| 2026-05-07 03:29 | 53.95003 | -30.09121 | 38129 ft | 501 kts | 82° |
| 2026-05-07 03:29 | 53.95549 | -29.97372 | 38130 ft | 501 kts | 82° |
| 2026-05-07 03:30 | 53.96085 | -29.85583 | 38128 ft | 502 kts | 82° |
| 2026-05-07 03:30 | 53.96611 | -29.73764 | 38129 ft | 502 kts | 82° |
| 2026-05-07 03:31 | 53.97127 | -29.61933 | 38135 ft | 502 kts | 82° |
| 2026-05-07 03:31 | 53.97631 | -29.50085 | 38122 ft | 503 kts | 82° |
| 2026-05-07 03:32 | 53.98121 | -29.38285 | 38122 ft | 504 kts | 83° |
| 2026-05-07 03:32 | 53.98603 | -29.26393 | 38122 ft | 503 kts | 83° |
| 2026-05-07 03:33 | 53.99074 | -29.14489 | 38117 ft | 503 kts | 83° |
| 2026-05-07 03:33 | 53.99530 | -29.02689 | 38117 ft | 504 kts | 83° |
| 2026-05-07 03:34 | 53.99979 | -28.90751 | 38114 ft | 505 kts | 83° |
| 2026-05-07 03:34 | 54.00414 | -28.78833 | 38113 ft | 506 kts | 83° |
| 2026-05-07 03:35 | 54.00837 | -28.66954 | 38110 ft | 506 kts | 83° |
| 2026-05-07 03:35 | 54.01249 | -28.55015 | 38105 ft | 506 kts | 83° |
| 2026-05-07 03:36 | 54.01651 | -28.43074 | 38103 ft | 507 kts | 84° |
| 2026-05-07 03:36 | 54.02042 | -28.31072 | 38102 ft | 508 kts | 84° |
| 2026-05-07 03:37 | 54.02422 | -28.19038 | 38102 ft | 509 kts | 84° |
| 2026-05-07 03:37 | 54.02789 | -28.07029 | 38097 ft | 508 kts | 84° |
| 2026-05-07 03:38 | 54.03144 | -27.95020 | 38100 ft | 507 kts | 84° |
| 2026-05-07 03:38 | 54.03486 | -27.83051 | 38100 ft | 508 kts | 84° |
| 2026-05-07 03:39 | 54.03815 | -27.71118 | 38094 ft | 508 kts | 84° |
| 2026-05-07 03:39 | 54.04135 | -27.59112 | 38086 ft | 508 kts | 84° |
| 2026-05-07 03:40 | 54.04441 | -27.47133 | 38089 ft | 508 kts | 84° |
| 2026-05-07 03:40 | 54.04737 | -27.35106 | 38105 ft | 508 kts | 85° |
| 2026-05-07 03:41 | 54.04975 | -27.25088 | 38085 ft | 509 kts | 85° |
| 2026-05-07 03:41 | 54.05292 | -27.11068 | 38084 ft | 510 kts | 85° |
| 2026-05-07 03:42 | 54.05511 | -27.00964 | 38082 ft | 510 kts | 85° |
| 2026-05-07 03:42 | 54.05761 | -26.88901 | 38081 ft | 510 kts | 85° |
| 2026-05-07 03:43 | 54.05998 | -26.76901 | 38096 ft | 509 kts | 85° |
| 2026-05-07 03:43 | 54.06226 | -26.64792 | 38078 ft | 510 kts | 86° |
| 2026-05-07 03:44 | 54.06439 | -26.52781 | 38073 ft | 510 kts | 86° |
| 2026-05-07 03:44 | 54.06640 | -26.40719 | 38076 ft | 511 kts | 86° |
| 2026-05-07 03:45 | 54.06830 | -26.28629 | 38060 ft | 511 kts | 86° |
| 2026-05-07 03:45 | 54.07009 | -26.16512 | 38064 ft | 511 kts | 86° |
| 2026-05-07 03:46 | 54.07175 | -26.04409 | 38057 ft | 512 kts | 86° |
| 2026-05-07 03:46 | 54.07330 | -25.92288 | 38058 ft | 513 kts | 86° |
| 2026-05-07 03:47 | 54.07471 | -25.80194 | 38076 ft | 513 kts | 86° |
| 2026-05-07 03:47 | 54.07601 | -25.68028 | 38054 ft | 513 kts | 87° |
| 2026-05-07 03:48 | 54.07720 | -25.55862 | 38055 ft | 513 kts | 87° |
| 2026-05-07 03:48 | 54.07825 | -25.43709 | 38054 ft | 513 kts | 87° |
| 2026-05-07 03:49 | 54.07918 | -25.31577 | 38050 ft | 512 kts | 88° |
| 2026-05-07 03:49 | 54.07999 | -25.19530 | 38050 ft | 512 kts | 88° |
| 2026-05-07 03:50 | 54.08068 | -25.07369 | 38044 ft | 512 kts | 88° |
| 2026-05-07 03:50 | 54.08125 | -24.95211 | 38049 ft | 513 kts | 88° |
| 2026-05-07 03:51 | 54.08169 | -24.83053 | 38049 ft | 514 kts | 88° |
| 2026-05-07 03:51 | 54.08201 | -24.70945 | 38045 ft | 514 kts | 88° |
| 2026-05-07 03:52 | 54.08221 | -24.58733 | 38042 ft | 514 kts | 88° |
| 2026-05-07 03:52 | 54.08229 | -24.46593 | 38050 ft | 514 kts | 88° |
| 2026-05-07 03:53 | 54.08225 | -24.34398 | 38034 ft | 515 kts | 89° |
| 2026-05-07 03:53 | 54.08209 | -24.22165 | 38034 ft | 515 kts | 89° |
| 2026-05-07 03:54 | 54.08179 | -24.09961 | 38031 ft | 515 kts | 89° |
| 2026-05-07 03:54 | 54.08137 | -23.97827 | 38032 ft | 515 kts | 89° |
| 2026-05-07 03:55 | 54.08083 | -23.85539 | 38038 ft | 516 kts | 90° |
| 2026-05-07 03:55 | 54.08017 | -23.73431 | 38027 ft | 516 kts | 90° |
| 2026-05-07 03:56 | 54.07938 | -23.61194 | 38027 ft | 516 kts | 90° |
| 2026-05-07 03:56 | 54.07847 | -23.48960 | 38020 ft | 516 kts | 90° |
| 2026-05-07 03:57 | 54.07743 | -23.36711 | 38017 ft | 516 kts | 90° |
| 2026-05-07 03:57 | 54.07627 | -23.24472 | 38019 ft | 517 kts | 90° |
| 2026-05-07 03:58 | 54.07499 | -23.12279 | 38017 ft | 517 kts | 90° |
| 2026-05-07 03:58 | 54.07358 | -23.00038 | 38009 ft | 517 kts | 91° |
| 2026-05-07 03:59 | 54.07205 | -22.87771 | 38012 ft | 516 kts | 91° |
| 2026-05-07 03:59 | 54.07039 | -22.75576 | 38012 ft | 516 kts | 91° |
| 2026-05-07 04:00 | 54.06862 | -22.63356 | 38009 ft | 516 kts | 91° |
| 2026-05-07 04:00 | 54.06672 | -22.51150 | 38010 ft | 517 kts | 91° |
| 2026-05-07 04:01 | 54.06468 | -22.38917 | 38007 ft | 517 kts | 91° |
| 2026-05-07 04:01 | 54.06253 | -22.26653 | 38007 ft | 517 kts | 91° |
| 2026-05-07 04:02 | 54.06026 | -22.14511 | 38004 ft | 517 kts | 91° |
| 2026-05-07 04:02 | 54.05786 | -22.02284 | 37998 ft | 517 kts | 91° |
| 2026-05-07 04:03 | 54.05534 | -21.90071 | 38016 ft | 516 kts | 92° |
| 2026-05-07 04:03 | 54.05404 | -21.84006 | 38151 ft | 517 kts | 92° |
| 2026-05-07 04:03 | 54.05270 | -21.77898 | 38441 ft | 517 kts | 92° |
| 2026-05-07 04:03 | 54.05132 | -21.71741 | 38722 ft | 516 kts | 92° |
| 2026-05-07 04:04 | 54.04992 | -21.65623 | 38912 ft | 516 kts | 92° |
| 2026-05-07 04:04 | 54.04702 | -21.53379 | 38994 ft | 518 kts | 92° |
| 2026-05-07 04:05 | 54.04401 | -21.41192 | 38992 ft | 518 kts | 92° |
| 2026-05-07 04:05 | 54.04085 | -21.28918 | 38987 ft | 518 kts | 92° |
| 2026-05-07 04:06 | 54.03757 | -21.16658 | 38992 ft | 518 kts | 92° |
| 2026-05-07 04:06 | 54.03418 | -21.04459 | 38985 ft | 518 kts | 92° |
| 2026-05-07 04:07 | 54.03069 | -20.92323 | 38984 ft | 518 kts | 92° |
| 2026-05-07 04:07 | 54.02703 | -20.80057 | 38977 ft | 518 kts | 93° |
| 2026-05-07 04:08 | 54.02328 | -20.67870 | 38979 ft | 518 kts | 93° |
| 2026-05-07 04:08 | 54.01936 | -20.55568 | 38978 ft | 518 kts | 93° |
| 2026-05-07 04:09 | 54.01537 | -20.43414 | 38970 ft | 518 kts | 93° |
| 2026-05-07 04:09 | 54.01122 | -20.31167 | 38972 ft | 517 kts | 94° |
| 2026-05-07 04:10 | 54.00696 | -20.18956 | 38969 ft | 516 kts | 94° |
| 2026-05-07 04:10 | 54.00260 | -20.06846 | 38969 ft | 516 kts | 94° |
| 2026-05-07 04:11 | 53.99098 | -19.94831 | 38962 ft | 515 kts | 106° |
| 2026-05-07 04:11 | 53.97099 | -19.83155 | 38962 ft | 515 kts | 108° |
| 2026-05-07 04:12 | 53.95018 | -19.71567 | 38963 ft | 515 kts | 108° |
| 2026-05-07 04:12 | 53.92929 | -19.59956 | 38953 ft | 515 kts | 108° |
| 2026-05-07 04:13 | 53.90956 | -19.48976 | 38947 ft | 514 kts | 108° |
| 2026-05-07 04:13 | 53.88861 | -19.37355 | 38948 ft | 513 kts | 108° |
| 2026-05-07 04:14 | 53.86760 | -19.25779 | 38949 ft | 513 kts | 108° |
| 2026-05-07 04:14 | 53.84644 | -19.14197 | 38945 ft | 513 kts | 108° |
| 2026-05-07 04:15 | 53.82538 | -19.02736 | 38944 ft | 514 kts | 109° |
| 2026-05-07 04:15 | 53.80403 | -18.91198 | 38938 ft | 514 kts | 109° |
| 2026-05-07 04:16 | 53.78247 | -18.79613 | 38939 ft | 514 kts | 109° |
| 2026-05-07 04:16 | 53.76107 | -18.68185 | 38937 ft | 513 kts | 109° |
| 2026-05-07 04:17 | 53.73943 | -18.56699 | 38935 ft | 512 kts | 109° |
| 2026-05-07 04:17 | 53.71776 | -18.45267 | 38937 ft | 511 kts | 109° |
| 2026-05-07 04:18 | 53.69598 | -18.33848 | 38933 ft | 511 kts | 109° |
| 2026-05-07 04:18 | 53.67408 | -18.22434 | 38932 ft | 511 kts | 109° |
| 2026-05-07 04:19 | 53.65206 | -18.11029 | 38932 ft | 511 kts | 110° |
| 2026-05-07 04:19 | 53.62986 | -17.99592 | 38933 ft | 511 kts | 110° |
| 2026-05-07 04:20 | 53.60779 | -17.88293 | 38935 ft | 510 kts | 110° |
| 2026-05-07 04:20 | 53.58560 | -17.76997 | 38917 ft | 510 kts | 110° |
| 2026-05-07 04:21 | 53.55192 | -17.59981 | 38928 ft | 510 kts | 110° |
| 2026-05-07 04:21 | 53.52937 | -17.48670 | 38911 ft | 510 kts | 110° |
| 2026-05-07 04:22 | 53.50667 | -17.37348 | 38925 ft | 510 kts | 110° |
| 2026-05-07 04:22 | 53.48390 | -17.26062 | 38916 ft | 510 kts | 110° |
| 2026-05-07 04:23 | 53.46095 | -17.14747 | 38917 ft | 510 kts | 110° |
| 2026-05-07 04:23 | 53.43809 | -17.03539 | 38917 ft | 510 kts | 110° |
| 2026-05-07 04:24 | 53.41499 | -16.92282 | 38916 ft | 510 kts | 111° |
| 2026-05-07 04:24 | 53.39175 | -16.81015 | 38914 ft | 510 kts | 111° |
| 2026-05-07 04:25 | 53.36841 | -16.69766 | 38913 ft | 510 kts | 111° |
| 2026-05-07 04:25 | 53.34527 | -16.58673 | 38910 ft | 509 kts | 111° |
| 2026-05-07 04:26 | 53.32161 | -16.47397 | 38907 ft | 508 kts | 111° |
| 2026-05-07 04:26 | 53.29825 | -16.36326 | 38908 ft | 508 kts | 111° |
| 2026-05-07 04:27 | 53.27466 | -16.25208 | 38908 ft | 507 kts | 111° |
| 2026-05-07 04:27 | 53.25097 | -16.14100 | 38905 ft | 508 kts | 111° |
| 2026-05-07 04:28 | 53.22720 | -16.03017 | 38908 ft | 508 kts | 111° |
| 2026-05-07 04:28 | 53.20333 | -15.91949 | 38903 ft | 507 kts | 112° |
| 2026-05-07 04:29 | 53.17930 | -15.80862 | 38902 ft | 507 kts | 112° |
| 2026-05-07 04:29 | 53.15553 | -15.69958 | 38905 ft | 507 kts | 112° |
| 2026-05-07 04:30 | 53.13544 | -15.60786 | 38910 ft | 506 kts | 112° |
| 2026-05-07 04:30 | 53.11113 | -15.49738 | 38912 ft | 507 kts | 112° |
| 2026-05-07 04:31 | 53.08681 | -15.38749 | 38901 ft | 506 kts | 112° |
| 2026-05-07 04:31 | 53.06231 | -15.27735 | 38904 ft | 505 kts | 112° |
| 2026-05-07 04:32 | 53.03786 | -15.16802 | 38905 ft | 505 kts | 112° |
| 2026-05-07 04:32 | 53.01355 | -15.05917 | 38903 ft | 505 kts | 111° |
| 2026-05-07 04:33 | 53.00062 | -14.94458 | 38909 ft | 508 kts | 92° |
| 2026-05-07 04:33 | 52.99994 | -14.82728 | 38903 ft | 509 kts | 91° |
| 2026-05-07 04:34 | 53.00061 | -14.70935 | 38906 ft | 508 kts | 91° |
| 2026-05-07 04:34 | 53.00106 | -14.59276 | 38907 ft | 508 kts | 91° |
| 2026-05-07 04:35 | 53.00117 | -14.47530 | 38905 ft | 508 kts | 91° |
| 2026-05-07 04:35 | 53.00107 | -14.35782 | 38906 ft | 508 kts | 91° |
| 2026-05-07 04:36 | 53.00086 | -14.24030 | 38905 ft | 508 kts | 91° |
| 2026-05-07 04:36 | 53.00055 | -14.12344 | 38905 ft | 507 kts | 91° |
| 2026-05-07 04:37 | 53.00091 | -14.00648 | 38907 ft | 508 kts | 86° |
| 2026-05-07 04:37 | 53.00967 | -13.89067 | 38908 ft | 509 kts | 83° |
| 2026-05-07 04:38 | 53.02004 | -13.77431 | 38904 ft | 508 kts | 82° |
| 2026-05-07 04:38 | 53.03043 | -13.65819 | 38906 ft | 508 kts | 82° |
| 2026-05-07 04:39 | 53.04063 | -13.54173 | 38906 ft | 507 kts | 83° |
| 2026-05-07 04:39 | 53.05059 | -13.42581 | 38908 ft | 508 kts | 83° |
| 2026-05-07 04:40 | 53.06040 | -13.31020 | 38907 ft | 507 kts | 83° |
| 2026-05-07 04:40 | 53.07013 | -13.19417 | 38908 ft | 507 kts | 83° |
| 2026-05-07 04:41 | 53.07976 | -13.07784 | 38909 ft | 507 kts | 83° |
| 2026-05-07 04:41 | 53.08928 | -12.96163 | 38908 ft | 506 kts | 83° |
| 2026-05-07 04:42 | 53.09867 | -12.84542 | 38908 ft | 507 kts | 83° |
| 2026-05-07 04:42 | 53.10788 | -12.73008 | 38908 ft | 506 kts | 83° |
| 2026-05-07 04:43 | 53.11706 | -12.61365 | 38908 ft | 505 kts | 83° |
| 2026-05-07 04:43 | 53.12602 | -12.49854 | 38912 ft | 505 kts | 83° |
| 2026-05-07 04:44 | 53.13494 | -12.38245 | 38911 ft | 505 kts | 83° |
| 2026-05-07 04:44 | 53.14372 | -12.26659 | 38912 ft | 505 kts | 83° |
| 2026-05-07 04:45 | 53.15237 | -12.15100 | 38911 ft | 504 kts | 83° |
| 2026-05-07 04:45 | 53.16094 | -12.03487 | 38913 ft | 504 kts | 84° |
| 2026-05-07 04:46 | 53.16941 | -11.91866 | 38911 ft | 504 kts | 84° |
| 2026-05-07 04:46 | 53.17775 | -11.80250 | 38906 ft | 504 kts | 84° |
| 2026-05-07 04:47 | 53.18591 | -11.68725 | 38916 ft | 503 kts | 84° |
| 2026-05-07 04:47 | 53.19401 | -11.57133 | 38916 ft | 503 kts | 84° |
| 2026-05-07 04:48 | 53.20200 | -11.45519 | 38919 ft | 503 kts | 84° |
| 2026-05-07 04:48 | 53.20986 | -11.33930 | 38919 ft | 503 kts | 84° |
| 2026-05-07 04:49 | 53.21753 | -11.22463 | 38919 ft | 502 kts | 84° |
| 2026-05-07 04:49 | 53.22521 | -11.10800 | 38924 ft | 501 kts | 84° |
| 2026-05-07 04:50 | 53.23264 | -10.99340 | 38921 ft | 500 kts | 84° |
| 2026-05-07 04:50 | 53.24002 | -10.87788 | 38921 ft | 500 kts | 84° |
| 2026-05-07 04:51 | 53.24727 | -10.76263 | 38926 ft | 499 kts | 84° |
| 2026-05-07 04:51 | 53.25441 | -10.64735 | 38924 ft | 499 kts | 84° |
| 2026-05-07 04:52 | 53.26141 | -10.53233 | 38924 ft | 500 kts | 84° |
| 2026-05-07 04:52 | 53.26835 | -10.41661 | 38939 ft | 499 kts | 85° |
| 2026-05-07 04:53 | 53.27517 | -10.30095 | 38926 ft | 499 kts | 85° |
| 2026-05-07 04:53 | 53.28183 | -10.18598 | 38924 ft | 499 kts | 85° |
| 2026-05-07 04:54 | 53.28839 | -10.07087 | 38930 ft | 499 kts | 85° |
| 2026-05-07 04:54 | 53.29486 | -9.95535 | 38947 ft | 499 kts | 85° |
| 2026-05-07 04:55 | 53.30123 | -9.83972 | 38949 ft | 499 kts | 85° |
| 2026-05-07 04:55 | 53.30747 | -9.72410 | 38932 ft | 498 kts | 85° |
| 2026-05-07 04:56 | 53.31358 | -9.60896 | 38931 ft | 497 kts | 85° |
| 2026-05-07 04:56 | 53.31958 | -9.49388 | 38933 ft | 497 kts | 85° |
| 2026-05-07 04:57 | 53.32546 | -9.37880 | 38954 ft | 497 kts | 85° |
| 2026-05-07 04:57 | 53.33127 | -9.26285 | 38949 ft | 497 kts | 85° |
| 2026-05-07 04:58 | 53.33691 | -9.14827 | 38953 ft | 497 kts | 86° |
| 2026-05-07 04:58 | 53.34245 | -9.03328 | 38956 ft | 496 kts | 86° |
| 2026-05-07 04:59 | 53.34789 | -8.91784 | 38941 ft | 496 kts | 86° |
| 2026-05-07 04:59 | 53.35321 | -8.80278 | 38940 ft | 496 kts | 86° |
| 2026-05-07 05:00 | 53.35844 | -8.68727 | 38958 ft | 496 kts | 86° |
| 2026-05-07 05:00 | 53.36354 | -8.57207 | 38953 ft | 495 kts | 86° |
| 2026-05-07 05:01 | 53.36848 | -8.45796 | 38959 ft | 495 kts | 86° |
| 2026-05-07 05:01 | 53.37336 | -8.34277 | 38961 ft | 495 kts | 86° |
| 2026-05-07 05:02 | 53.37813 | -8.22748 | 38944 ft | 495 kts | 86° |
| 2026-05-07 05:02 | 53.38276 | -8.11277 | 38943 ft | 494 kts | 86° |
| 2026-05-07 05:03 | 53.38727 | -7.99843 | 38945 ft | 494 kts | 86° |
| 2026-05-07 05:03 | 53.39169 | -7.88349 | 38952 ft | 494 kts | 87° |
| 2026-05-07 05:04 | 53.39602 | -7.76832 | 38964 ft | 494 kts | 87° |
| 2026-05-07 05:04 | 53.40108 | -7.65410 | 38945 ft | 493 kts | 86° |
| 2026-05-07 05:05 | 53.40654 | -7.53945 | 38959 ft | 492 kts | 86° |
| 2026-05-07 05:05 | 53.41172 | -7.42531 | 38948 ft | 492 kts | 86° |
| 2026-05-07 05:06 | 53.41670 | -7.31035 | 38947 ft | 492 kts | 86° |
| 2026-05-07 05:06 | 53.42148 | -7.19684 | 38963 ft | 492 kts | 86° |
| 2026-05-07 05:07 | 53.42607 | -7.08535 | 38958 ft | 491 kts | 86° |
| 2026-05-07 05:07 | 53.43064 | -6.97197 | 38964 ft | 491 kts | 86° |
| 2026-05-07 05:08 | 53.43516 | -6.85724 | 38967 ft | 491 kts | 86° |
| 2026-05-07 05:08 | 53.43953 | -6.74324 | 38950 ft | 491 kts | 86° |
| 2026-05-07 05:09 | 53.44383 | -6.62853 | 38962 ft | 491 kts | 86° |
| 2026-05-07 05:09 | 53.44797 | -6.51494 | 38963 ft | 490 kts | 87° |
| 2026-05-07 05:10 | 53.45204 | -6.40033 | 38965 ft | 490 kts | 87° |
| 2026-05-07 05:10 | 53.45598 | -6.28606 | 38966 ft | 490 kts | 87° |
| 2026-05-07 05:11 | 53.45978 | -6.17296 | 38951 ft | 490 kts | 87° |
| 2026-05-07 05:11 | 53.46352 | -6.05835 | 38966 ft | 492 kts | 87° |
| 2026-05-07 05:12 | 53.46715 | -5.94358 | 38968 ft | 492 kts | 87° |
| 2026-05-07 05:12 | 53.47067 | -5.82911 | 38953 ft | 492 kts | 87° |
| 2026-05-07 05:13 | 53.47408 | -5.71442 | 38971 ft | 492 kts | 87° |
| 2026-05-07 05:13 | 53.47738 | -5.59973 | 38975 ft | 492 kts | 87° |
| 2026-05-07 05:14 | 53.47944 | -5.48459 | 38975 ft | 492 kts | 92° |
| 2026-05-07 05:14 | 53.47674 | -5.36985 | 38979 ft | 492 kts | 93° |
| 2026-05-07 05:15 | 53.47340 | -5.25511 | 38979 ft | 492 kts | 93° |
| 2026-05-07 05:15 | 53.46994 | -5.14014 | 38981 ft | 492 kts | 93° |
| 2026-05-07 05:16 | 53.46645 | -5.02616 | 38981 ft | 492 kts | 93° |
| 2026-05-07 05:16 | 53.46270 | -4.91164 | 38980 ft | 492 kts | 93° |
| 2026-05-07 05:17 | 53.45894 | -4.79710 | 38982 ft | 492 kts | 93° |
| 2026-05-07 05:17 | 53.45511 | -4.68336 | 38994 ft | 492 kts | 93° |
| 2026-05-07 05:18 | 53.45120 | -4.56953 | 38992 ft | 491 kts | 94° |
| 2026-05-07 05:18 | 53.44779 | -4.47402 | 38987 ft | 491 kts | 94° |
| 2026-05-07 05:19 | 53.44357 | -4.35953 | 38994 ft | 491 kts | 94° |
| 2026-05-07 05:19 | 53.43865 | -4.22663 | 38994 ft | 491 kts | 94° |
| 2026-05-07 05:20 | 53.43496 | -4.13149 | 38991 ft | 491 kts | 94° |
| 2026-05-07 05:20 | 53.43043 | -4.01723 | 38990 ft | 491 kts | 94° |
| 2026-05-07 05:21 | 53.42816 | -3.96063 | 38630 ft | 487 kts | 94° |
| 2026-05-07 05:21 | 53.42366 | -3.84786 | 37228 ft | 484 kts | 94° |
| 2026-05-07 05:21 | 53.42131 | -3.79171 | 36556 ft | 482 kts | 94° |
| 2026-05-07 05:22 | 53.41893 | -3.73564 | 35875 ft | 480 kts | 94° |
| 2026-05-07 05:22 | 53.41649 | -3.67989 | 35252 ft | 478 kts | 94° |
| 2026-05-07 05:22 | 53.41171 | -3.62529 | 34567 ft | 477 kts | 102° |
| 2026-05-07 05:22 | 53.40207 | -3.57190 | 33875 ft | 477 kts | 110° |
| 2026-05-07 05:23 | 53.38863 | -3.52082 | 33132 ft | 475 kts | 114° |
| 2026-05-07 05:23 | 53.37444 | -3.47053 | 32114 ft | 480 kts | 115° |
| 2026-05-07 05:23 | 53.36020 | -3.42128 | 31104 ft | 485 kts | 115° |
| 2026-05-07 05:23 | 53.34530 | -3.37028 | 30060 ft | 490 kts | 116° |
| 2026-05-07 05:24 | 53.33022 | -3.31856 | 28925 ft | 494 kts | 116° |
| 2026-05-07 05:24 | 53.31514 | -3.26694 | 28173 ft | 490 kts | 116° |
| 2026-05-07 05:24 | 53.30033 | -3.21629 | 27525 ft | 485 kts | 116° |
| 2026-05-07 05:24 | 53.28564 | -3.16601 | 26754 ft | 482 kts | 116° |
| 2026-05-07 05:25 | 53.27094 | -3.11574 | 26042 ft | 479 kts | 116° |
| 2026-05-07 05:25 | 53.25626 | -3.06561 | 25440 ft | 474 kts | 116° |
| 2026-05-07 05:25 | 53.24176 | -3.01615 | 24817 ft | 470 kts | 116° |
| 2026-05-07 05:25 | 53.22764 | -2.96809 | 24191 ft | 466 kts | 116° |
| 2026-05-07 05:26 | 53.21321 | -2.91911 | 23564 ft | 463 kts | 116° |
| 2026-05-07 05:26 | 53.19930 | -2.87193 | 22981 ft | 457 kts | 116° |
| 2026-05-07 05:26 | 53.18538 | -2.82480 | 22338 ft | 452 kts | 116° |
| 2026-05-07 05:26 | 53.17155 | -2.77808 | 21669 ft | 448 kts | 116° |
| 2026-05-07 05:27 | 53.15781 | -2.73172 | 20964 ft | 445 kts | 117° |
| 2026-05-07 05:27 | 53.14411 | -2.68560 | 20406 ft | 443 kts | 117° |
| 2026-05-07 05:27 | 53.13047 | -2.63980 | 19680 ft | 439 kts | 117° |
| 2026-05-07 05:27 | 53.11686 | -2.59423 | 19085 ft | 434 kts | 117° |
| 2026-05-07 05:28 | 53.10350 | -2.54951 | 18479 ft | 431 kts | 117° |
| 2026-05-07 05:28 | 53.09013 | -2.50490 | 17817 ft | 427 kts | 117° |
| 2026-05-07 05:28 | 53.07692 | -2.46088 | 17140 ft | 423 kts | 117° |
| 2026-05-07 05:28 | 53.06376 | -2.41713 | 16441 ft | 421 kts | 117° |
| 2026-05-07 05:29 | 53.05089 | -2.37440 | 15782 ft | 418 kts | 117° |
| 2026-05-07 05:29 | 53.03681 | -2.33252 | 15102 ft | 414 kts | 125° |
| 2026-05-07 05:29 | 53.01817 | -2.29593 | 14459 ft | 409 kts | 139° |
| 2026-05-07 05:29 | 52.99603 | -2.26771 | 13806 ft | 404 kts | 149° |
| 2026-05-07 05:30 | 52.97228 | -2.24312 | 13132 ft | 399 kts | 149° |
| 2026-05-07 05:30 | 52.94886 | -2.21885 | 12561 ft | 393 kts | 149° |
| 2026-05-07 05:30 | 52.92585 | -2.19481 | 11910 ft | 389 kts | 149° |
| 2026-05-07 05:30 | 52.90315 | -2.17110 | 11269 ft | 385 kts | 149° |
| 2026-05-07 05:31 | 52.88045 | -2.14740 | 10670 ft | 380 kts | 149° |
| 2026-05-07 05:31 | 52.85836 | -2.12435 | 10213 ft | 373 kts | 149° |
| 2026-05-07 05:31 | 52.83676 | -2.10184 | 10067 ft | 370 kts | 149° |
| 2026-05-07 05:31 | 52.81482 | -2.07901 | 10048 ft | 371 kts | 149° |
| 2026-05-07 05:32 | 52.79327 | -2.05659 | 10047 ft | 355 kts | 149° |
| 2026-05-07 05:32 | 52.77312 | -2.03563 | 10045 ft | 335 kts | 149° |
| 2026-05-07 05:32 | 52.75391 | -2.01568 | 10044 ft | 316 kts | 149° |
| 2026-05-07 05:32 | 52.73582 | -1.99693 | 10040 ft | 299 kts | 148° |
| 2026-05-07 05:33 | 52.71863 | -1.97913 | 10045 ft | 290 kts | 149° |
| 2026-05-07 05:33 | 52.70143 | -1.96136 | 10049 ft | 291 kts | 149° |
| 2026-05-07 05:33 | 52.68435 | -1.94372 | 10049 ft | 291 kts | 149° |
| 2026-05-07 05:33 | 52.66718 | -1.92599 | 10051 ft | 291 kts | 149° |
| 2026-05-07 05:34 | 52.64997 | -1.90824 | 10049 ft | 291 kts | 149° |
| 2026-05-07 05:34 | 52.63274 | -1.89048 | 10049 ft | 291 kts | 149° |
| 2026-05-07 05:34 | 52.61549 | -1.87272 | 10066 ft | 294 kts | 149° |
| 2026-05-07 05:34 | 52.59830 | -1.85504 | 10067 ft | 292 kts | 149° |
| 2026-05-07 05:35 | 52.58067 | -1.83692 | 10078 ft | 307 kts | 149° |
| 2026-05-07 05:35 | 52.56182 | -1.81760 | 10084 ft | 340 kts | 149° |
| 2026-05-07 05:35 | 52.54102 | -1.79630 | 10078 ft | 372 kts | 148° |
| 2026-05-07 05:35 | 52.51867 | -1.77341 | 10073 ft | 382 kts | 148° |
| 2026-05-07 05:36 | 52.49630 | -1.75050 | 10070 ft | 383 kts | 148° |
| 2026-05-07 05:36 | 52.47380 | -1.72749 | 10075 ft | 382 kts | 148° |
| 2026-05-07 05:36 | 52.45125 | -1.70446 | 10075 ft | 381 kts | 148° |
| 2026-05-07 05:36 | 52.42856 | -1.68132 | 10075 ft | 381 kts | 148° |
| 2026-05-07 05:37 | 52.40609 | -1.65844 | 10075 ft | 381 kts | 148° |
| 2026-05-07 05:37 | 52.38357 | -1.63554 | 10074 ft | 381 kts | 148° |
| 2026-05-07 05:37 | 52.36117 | -1.61277 | 10072 ft | 381 kts | 148° |
| 2026-05-07 05:37 | 52.33851 | -1.58979 | 10040 ft | 381 kts | 148° |
| 2026-05-07 05:38 | 52.31638 | -1.56736 | 9571 ft | 382 kts | 148° |
| 2026-05-07 05:38 | 52.29367 | -1.54438 | 8842 ft | 380 kts | 148° |
| 2026-05-07 05:38 | 52.27194 | -1.52241 | 8231 ft | 374 kts | 148° |
| 2026-05-07 05:38 | 52.24971 | -1.49998 | 7565 ft | 370 kts | 148° |
| 2026-05-07 05:39 | 52.22843 | -1.47849 | 7202 ft | 362 kts | 147° |
| 2026-05-07 05:39 | 52.20788 | -1.45477 | 7079 ft | 360 kts | 140° |
| 2026-05-07 05:39 | 52.18864 | -1.42770 | 7072 ft | 362 kts | 138° |
| 2026-05-07 05:39 | 52.16954 | -1.40072 | 7073 ft | 363 kts | 139° |
| 2026-05-07 05:40 | 52.15037 | -1.37397 | 7074 ft | 363 kts | 139° |
| 2026-05-07 05:40 | 52.13140 | -1.34751 | 7074 ft | 363 kts | 139° |
| 2026-05-07 05:40 | 52.11228 | -1.32086 | 7074 ft | 363 kts | 139° |
| 2026-05-07 05:40 | 52.09302 | -1.29406 | 7072 ft | 363 kts | 139° |
| 2026-05-07 05:41 | 52.07395 | -1.26753 | 7070 ft | 363 kts | 139° |
| 2026-05-07 05:41 | 52.05472 | -1.24083 | 7068 ft | 363 kts | 139° |
| 2026-05-07 05:41 | 52.03544 | -1.21409 | 7065 ft | 363 kts | 139° |
| 2026-05-07 05:41 | 52.01620 | -1.18742 | 7065 ft | 364 kts | 139° |
| 2026-05-07 05:42 | 51.99687 | -1.16067 | 7066 ft | 365 kts | 139° |
| 2026-05-07 05:42 | 51.97753 | -1.13395 | 7065 ft | 365 kts | 139° |
| 2026-05-07 05:42 | 51.95846 | -1.10763 | 7066 ft | 365 kts | 139° |
| 2026-05-07 05:42 | 51.93892 | -1.08055 | 7066 ft | 365 kts | 139° |
| 2026-05-07 05:43 | 51.91956 | -1.05389 | 7065 ft | 365 kts | 139° |
| 2026-05-07 05:43 | 51.90031 | -1.02747 | 7064 ft | 365 kts | 139° |
| 2026-05-07 05:43 | 51.88084 | -1.00076 | 7012 ft | 362 kts | 139° |
| 2026-05-07 05:43 | 51.86182 | -0.97462 | 6509 ft | 360 kts | 138° |
| 2026-05-07 05:44 | 51.84576 | -0.94427 | 6101 ft | 347 kts | 119° |
| 2026-05-07 05:44 | 51.83644 | -0.91035 | 5851 ft | 332 kts | 113° |
| 2026-05-07 05:44 | 51.82669 | -0.87744 | 5504 ft | 320 kts | 117° |
| 2026-05-07 05:44 | 51.81715 | -0.84622 | 5172 ft | 310 kts | 116° |
| 2026-05-07 05:45 | 51.80776 | -0.81512 | 4839 ft | 301 kts | 116° |
| 2026-05-07 05:45 | 51.79880 | -0.78564 | 4495 ft | 293 kts | 116° |
| 2026-05-07 05:45 | 51.78990 | -0.75655 | 4182 ft | 285 kts | 117° |
| 2026-05-07 05:45 | 51.78125 | -0.72834 | 3912 ft | 277 kts | 117° |
| 2026-05-07 05:46 | 51.77284 | -0.70096 | 3655 ft | 268 kts | 116° |
| 2026-05-07 05:46 | 51.76460 | -0.67422 | 3396 ft | 260 kts | 116° |
| 2026-05-07 05:46 | 51.75666 | -0.64846 | 3172 ft | 252 kts | 116° |
| 2026-05-07 05:46 | 51.74906 | -0.62384 | 3043 ft | 240 kts | 116° |
| 2026-05-07 05:47 | 51.74784 | -0.61987 | 3041 ft | 237 kts | 116° |